Scarborough, Maine
Current Conditions -  °F | °C
As of 8:51 PM on Monday 20 Oct 2014 (Local Time) from KPWM Reporting Station
Broken Clouds Broken Clouds  
Wind Chill: 47°   Ceiling: 8000
Heat Index: 47°   Visibility: 10mi
Dew Point: 35°   Wind: 0mph
Humidity: 63%   Direction: NA
Pressure: 29.98"   Gusts: NA
Location:  43.6°N, 70.33°W
Report Text: KPWM 210051Z 00000KT 10SM BKN080 08/02 A2998 RMK AO2 SLP151 T00830017
Loading
Personal Weather Stations






























Interactive Weather Map
Tropical Storm Tracking
New forecast layout! Learn more

10-Day Weather Forecast

Advertisements
Track Severe Weather on mobile